sensor_id;sensor_type;location;lat;lon;timestamp;pressure;altitude;pressure_sealevel;temperature;humidity
84932;BME280;75193;53.980;13.902;2024-01-30T00:02:23;102861.31;;;14.40;36.37
84932;BME280;75193;53.980;13.902;2024-01-30T00:04:49;102848.94;;;14.42;36.38
84932;BME280;75193;53.980;13.902;2024-01-30T00:07:14;102857.03;;;14.37;36.43
84932;BME280;75193;53.980;13.902;2024-01-30T00:09:40;102856.06;;;14.63;36.04
84932;BME280;75193;53.980;13.902;2024-01-30T00:12:06;102854.34;;;14.62;36.15
84932;BME280;75193;53.980;13.902;2024-01-30T00:14:32;102848.78;;;14.23;36.82
84932;BME280;75193;53.980;13.902;2024-01-30T00:16:57;102855.91;;;14.19;36.77
84932;BME280;75193;53.980;13.902;2024-01-30T00:19:23;102857.72;;;14.66;36.03
84932;BME280;75193;53.980;13.902;2024-01-30T00:21:48;102861.50;;;14.10;36.97
84932;BME280;75193;53.980;13.902;2024-01-30T00:24:14;102867.00;;;13.79;37.54
84932;BME280;75193;53.980;13.902;2024-01-30T00:26:39;102856.41;;;14.06;36.93
84932;BME280;75193;53.980;13.902;2024-01-30T00:29:05;102860.69;;;14.08;37.08
84932;BME280;75193;53.980;13.902;2024-01-30T00:31:30;102852.41;;;14.44;36.62
84932;BME280;75193;53.980;13.902;2024-01-30T00:33:56;102854.72;;;14.53;36.35
84932;BME280;75193;53.980;13.902;2024-01-30T00:36:21;102851.56;;;14.43;35.89
84932;BME280;75193;53.980;13.902;2024-01-30T00:38:47;102854.72;;;14.53;36.22
84932;BME280;75193;53.980;13.902;2024-01-30T00:41:12;102847.81;;;14.50;36.38
84932;BME280;75193;53.980;13.902;2024-01-30T00:43:38;102854.88;;;14.00;36.82
84932;BME280;75193;53.980;13.902;2024-01-30T00:46:04;102846.09;;;14.24;36.86
84932;BME280;75193;53.980;13.902;2024-01-30T00:48:29;102838.31;;;14.68;35.80
84932;BME280;75193;53.980;13.902;2024-01-30T00:50:55;102832.03;;;14.49;36.29
84932;BME280;75193;53.980;13.902;2024-01-30T00:53:21;102828.72;;;14.67;35.86
84932;BME280;75193;53.980;13.902;2024-01-30T00:55:46;102836.72;;;14.64;35.54
84932;BME280;75193;53.980;13.902;2024-01-30T00:58:12;102839.41;;;14.63;36.09
84932;BME280;75193;53.980;13.902;2024-01-30T01:00:38;102833.63;;;14.76;35.41
84932;BME280;75193;53.980;13.902;2024-01-30T01:03:04;102838.44;;;14.65;35.63
84932;BME280;75193;53.980;13.902;2024-01-30T01:05:29;102833.19;;;14.65;35.75
84932;BME280;75193;53.980;13.902;2024-01-30T01:07:55;102836.59;;;14.67;35.73
84932;BME280;75193;53.980;13.902;2024-01-30T01:10:20;102839.41;;;14.39;36.27
84932;BME280;75193;53.980;13.902;2024-01-30T01:12:48;102844.66;;;14.16;36.56
84932;BME280;75193;53.980;13.902;2024-01-30T01:15:13;102846.91;;;14.50;35.93
84932;BME280;75193;53.980;13.902;2024-01-30T01:17:39;102850.13;;;14.58;35.97
84932;BME280;75193;53.980;13.902;2024-01-30T01:20:06;102855.75;;;14.24;36.60
84932;BME280;75193;53.980;13.902;2024-01-30T01:22:32;102853.59;;;14.35;36.46
84932;BME280;75193;53.980;13.902;2024-01-30T01:25:00;102853.22;;;13.98;37.42
84932;BME280;75193;53.980;13.902;2024-01-30T01:27:26;102848.66;;;13.51;38.28
84932;BME280;75193;53.980;13.902;2024-01-30T01:29:52;102851.25;;;14.03;37.11
84932;BME280;75193;53.980;13.902;2024-01-30T01:32:19;102862.88;;;13.97;37.38
84932;BME280;75193;53.980;13.902;2024-01-30T01:34:45;102856.47;;;13.79;37.82
84932;BME280;75193;53.980;13.902;2024-01-30T01:37:10;102854.28;;;14.17;36.77
84932;BME280;75193;53.980;13.902;2024-01-30T01:39:36;102853.41;;;14.16;36.88
84932;BME280;75193;53.980;13.902;2024-01-30T01:42:01;102845.47;;;14.41;36.33
84932;BME280;75193;53.980;13.902;2024-01-30T01:44:27;102851.91;;;14.09;37.08
84932;BME280;75193;53.980;13.902;2024-01-30T01:46:54;102843.69;;;14.18;36.79
84932;BME280;75193;53.980;13.902;2024-01-30T01:49:19;102844.81;;;14.11;37.05
84932;BME280;75193;53.980;13.902;2024-01-30T01:51:47;102841.03;;;13.95;37.48
84932;BME280;75193;53.980;13.902;2024-01-30T01:54:14;102845.22;;;14.24;36.79
84932;BME280;75193;53.980;13.902;2024-01-30T01:56:39;102850.78;;;13.91;37.41
84932;BME280;75193;53.980;13.902;2024-01-30T01:59:07;102844.00;;;14.09;36.99
84932;BME280;75193;53.980;13.902;2024-01-30T02:01:35;102851.81;;;13.87;37.25
84932;BME280;75193;53.980;13.902;2024-01-30T02:04:01;102844.81;;;14.11;36.99
84932;BME280;75193;53.980;13.902;2024-01-30T02:06:27;102856.31;;;13.84;37.46
84932;BME280;75193;53.980;13.902;2024-01-30T02:08:54;102848.78;;;13.48;37.98
84932;BME280;75193;53.980;13.902;2024-01-30T02:11:23;102849.72;;;13.97;37.29
84932;BME280;75193;53.980;13.902;2024-01-30T02:13:49;102840.88;;;14.00;37.19
84932;BME280;75193;53.980;13.902;2024-01-30T02:16:15;102850.09;;;13.86;37.32
84932;BME280;75193;53.980;13.902;2024-01-30T02:18:42;102841.81;;;14.22;36.74
84932;BME280;75193;53.980;13.902;2024-01-30T02:21:11;102833.28;;;14.15;36.55
84932;BME280;75193;53.980;13.902;2024-01-30T02:23:37;102843.00;;;14.13;36.79
84932;BME280;75193;53.980;13.902;2024-01-30T02:26:04;102843.84;;;13.89;37.13
84932;BME280;75193;53.980;13.902;2024-01-30T02:28:30;102848.59;;;14.04;36.84
84932;BME280;75193;53.980;13.902;2024-01-30T02:30:55;102849.97;;;14.14;36.75
84932;BME280;75193;53.980;13.902;2024-01-30T02:33:21;102848.28;;;14.12;36.77
84932;BME280;75193;53.980;13.902;2024-01-30T02:35:47;102849.69;;;14.22;36.75
84932;BME280;75193;53.980;13.902;2024-01-30T02:38:13;102841.25;;;14.14;36.43
84932;BME280;75193;53.980;13.902;2024-01-30T02:40:38;102844.31;;;14.25;36.35
84932;BME280;75193;53.980;13.902;2024-01-30T02:43:04;102842.69;;;13.98;36.81
84932;BME280;75193;53.980;13.902;2024-01-30T02:45:30;102845.28;;;13.99;36.88
84932;BME280;75193;53.980;13.902;2024-01-30T02:47:55;102843.84;;;13.89;37.29
84932;BME280;75193;53.980;13.902;2024-01-30T02:50:21;102841.50;;;13.81;37.42
84932;BME280;75193;53.980;13.902;2024-01-30T02:52:46;102836.78;;;13.66;37.76
84932;BME280;75193;53.980;13.902;2024-01-30T02:55:12;102844.88;;;13.85;37.49
84932;BME280;75193;53.980;13.902;2024-01-30T02:57:38;102831.16;;;13.77;37.93
84932;BME280;75193;53.980;13.902;2024-01-30T03:00:05;102837.63;;;13.67;38.18
84932;BME280;75193;53.980;13.902;2024-01-30T03:02:32;102834.59;;;13.79;37.97
84932;BME280;75193;53.980;13.902;2024-01-30T03:04:59;102832.50;;;13.88;37.65
84932;BME280;75193;53.980;13.902;2024-01-30T03:07:24;102827.59;;;14.03;37.24
84932;BME280;75193;53.980;13.902;2024-01-30T03:09:50;102823.78;;;14.11;36.87
84932;BME280;75193;53.980;13.902;2024-01-30T03:12:15;102835.59;;;14.00;37.17
84932;BME280;75193;53.980;13.902;2024-01-30T03:14:41;102821.56;;;14.01;37.15
84932;BME280;75193;53.980;13.902;2024-01-30T03:17:07;102828.53;;;13.77;37.74
84932;BME280;75193;53.980;13.902;2024-01-30T03:19:33;102831.22;;;14.00;37.25
84932;BME280;75193;53.980;13.902;2024-01-30T03:21:59;102829.06;;;13.86;37.61
84932;BME280;75193;53.980;13.902;2024-01-30T03:24:24;102828.78;;;13.44;38.56
84932;BME280;75193;53.980;13.902;2024-01-30T03:26:50;102825.63;;;13.84;37.88
84932;BME280;75193;53.980;13.902;2024-01-30T03:29:15;102826.78;;;13.51;38.33
84932;BME280;75193;53.980;13.902;2024-01-30T03:31:41;102836.91;;;13.63;38.19
84932;BME280;75193;53.980;13.902;2024-01-30T03:34:07;102834.16;;;13.91;37.88
84932;BME280;75193;53.980;13.902;2024-01-30T03:36:32;102836.03;;;13.62;38.13
84932;BME280;75193;53.980;13.902;2024-01-30T03:39:00;102835.25;;;14.09;37.48
84932;BME280;75193;53.980;13.902;2024-01-30T03:41:25;102826.56;;;14.32;36.88
84932;BME280;75193;53.980;13.902;2024-01-30T03:43:51;102840.00;;;14.47;36.49
84932;BME280;75193;53.980;13.902;2024-01-30T03:46:16;102840.16;;;14.19;37.21
84932;BME280;75193;53.980;13.902;2024-01-30T03:48:42;102844.38;;;13.74;38.08
84932;BME280;75193;53.980;13.902;2024-01-30T03:51:08;102838.50;;;13.92;37.69
84932;BME280;75193;53.980;13.902;2024-01-30T03:53:34;102842.69;;;13.98;37.69
84932;BME280;75193;53.980;13.902;2024-01-30T03:56:00;102836.50;;;14.47;36.59
84932;BME280;75193;53.980;13.902;2024-01-30T03:58:26;102832.03;;;14.25;37.04
84932;BME280;75193;53.980;13.902;2024-01-30T04:00:51;102841.75;;;14.23;36.88
84932;BME280;75193;53.980;13.902;2024-01-30T04:03:17;102834.84;;;14.44;36.57
84932;BME280;75193;53.980;13.902;2024-01-30T04:05:42;102834.22;;;14.14;37.06
84932;BME280;75193;53.980;13.902;2024-01-30T04:08:08;102831.56;;;14.38;36.93
84932;BME280;75193;53.980;13.902;2024-01-30T04:10:34;102837.31;;;14.01;37.35
84932;BME280;75193;53.980;13.902;2024-01-30T04:13:00;102830.06;;;14.31;36.89
84932;BME280;75193;53.980;13.902;2024-01-30T04:15:26;102823.81;;;14.35;37.01
84932;BME280;75193;53.980;13.902;2024-01-30T04:17:52;102825.84;;;14.51;36.40
84932;BME280;75193;53.980;13.902;2024-01-30T04:20:17;102832.03;;;14.49;36.65
84932;BME280;75193;53.980;13.902;2024-01-30T04:22:44;102821.44;;;14.52;36.61
84932;BME280;75193;53.980;13.902;2024-01-30T04:25:10;102816.91;;;14.56;36.73
84932;BME280;75193;53.980;13.902;2024-01-30T04:27:35;102832.50;;;14.13;37.40
84932;BME280;75193;53.980;13.902;2024-01-30T04:30:01;102825.78;;;14.28;37.00
84932;BME280;75193;53.980;13.902;2024-01-30T04:32:27;102825.94;;;14.48;36.94
84932;BME280;75193;53.980;13.902;2024-01-30T04:34:52;102818.56;;;14.58;36.51
84932;BME280;75193;53.980;13.902;2024-01-30T04:37:18;102830.13;;;14.54;36.78
84932;BME280;75193;53.980;13.902;2024-01-30T04:39:43;102821.06;;;14.38;36.77
84932;BME280;75193;53.980;13.902;2024-01-30T04:42:09;102820.94;;;14.41;36.95
84932;BME280;75193;53.980;13.902;2024-01-30T04:44:34;102810.66;;;14.58;36.71
84932;BME280;75193;53.980;13.902;2024-01-30T04:47:00;102805.94;;;14.66;36.53
84932;BME280;75193;53.980;13.902;2024-01-30T04:49:27;102806.66;;;14.48;36.70
84932;BME280;75193;53.980;13.902;2024-01-30T04:51:53;102806.97;;;14.62;36.57
84932;BME280;75193;53.980;13.902;2024-01-30T04:54:19;102812.50;;;14.31;37.16
84932;BME280;75193;53.980;13.902;2024-01-30T04:56:44;102807.72;;;14.19;37.47
84932;BME280;75193;53.980;13.902;2024-01-30T04:59:09;102809.47;;;14.43;36.97
84932;BME280;75193;53.980;13.902;2024-01-30T05:01:35;102808.84;;;13.88;38.01
84932;BME280;75193;53.980;13.902;2024-01-30T05:04:01;102806.19;;;14.37;37.19
84932;BME280;75193;53.980;13.902;2024-01-30T05:06:27;102810.59;;;14.36;37.39
84932;BME280;75193;53.980;13.902;2024-01-30T05:08:53;102803.94;;;14.26;37.28
84932;BME280;75193;53.980;13.902;2024-01-30T05:11:19;102812.34;;;14.12;37.75
84932;BME280;75193;53.980;13.902;2024-01-30T05:13:44;102808.44;;;14.47;36.89
84932;BME280;75193;53.980;13.902;2024-01-30T05:16:10;102810.59;;;14.36;37.23
84932;BME280;75193;53.980;13.902;2024-01-30T05:18:36;102813.44;;;14.30;37.26
84932;BME280;75193;53.980;13.902;2024-01-30T05:21:02;102807.44;;;14.50;36.96
84932;BME280;75193;53.980;13.902;2024-01-30T05:23:28;102807.56;;;14.70;36.46
84932;BME280;75193;53.980;13.902;2024-01-30T05:25:53;102809.56;;;14.40;36.95
84932;BME280;75193;53.980;13.902;2024-01-30T05:28:19;102806.97;;;14.39;36.69
84932;BME280;75193;53.980;13.902;2024-01-30T05:30:44;102806.13;;;14.38;36.73
84932;BME280;75193;53.980;13.902;2024-01-30T05:33:09;102811.13;;;13.73;37.92
84932;BME280;75193;53.980;13.902;2024-01-30T05:35:37;102809.88;;;13.84;37.89
84932;BME280;75193;53.980;13.902;2024-01-30T05:38:03;102812.13;;;13.95;37.69
84932;BME280;75193;53.980;13.902;2024-01-30T05:40:29;102810.97;;;14.25;37.12
84932;BME280;75193;53.980;13.902;2024-01-30T05:42:55;102810.28;;;13.97;37.15
84932;BME280;75193;53.980;13.902;2024-01-30T05:45:21;102803.88;;;14.04;37.00
84932;BME280;75193;53.980;13.902;2024-01-30T05:47:48;102814.50;;;13.78;37.56
84932;BME280;75193;53.980;13.902;2024-01-30T05:50:14;102812.31;;;13.39;38.72
84932;BME280;75193;53.980;13.902;2024-01-30T05:52:40;102807.13;;;13.10;39.38
84932;BME280;75193;53.980;13.902;2024-01-30T05:55:06;102815.59;;;13.71;38.11
84932;BME280;75193;53.980;13.902;2024-01-30T05:57:32;102799.94;;;13.43;38.57
84932;BME280;75193;53.980;13.902;2024-01-30T05:59:58;102812.00;;;13.48;38.46
84932;BME280;75193;53.980;13.902;2024-01-30T06:02:23;102811.31;;;13.43;38.79
84932;BME280;75193;53.980;13.902;2024-01-30T06:04:49;102814.50;;;13.78;37.77
84932;BME280;75193;53.980;13.902;2024-01-30T06:07:14;102815.97;;;13.60;38.28
84932;BME280;75193;53.980;13.902;2024-01-30T06:09:40;102811.38;;;13.67;37.82
84932;BME280;75193;53.980;13.902;2024-01-30T06:12:06;102818.53;;;13.86;37.57
84932;BME280;75193;53.980;13.902;2024-01-30T06:14:32;102815.97;;;13.60;37.74
84932;BME280;75193;53.980;13.902;2024-01-30T06:16:58;102814.56;;;13.50;38.55
84932;BME280;75193;53.980;13.902;2024-01-30T06:19:24;102808.25;;;13.80;37.53
84932;BME280;75193;53.980;13.902;2024-01-30T06:21:49;102808.47;;;13.23;39.09
84932;BME280;75193;53.980;13.902;2024-01-30T06:24:15;102812.84;;;13.74;38.05
84932;BME280;75193;53.980;13.902;2024-01-30T06:26:40;102805.31;;;13.40;38.49
84932;BME280;75193;53.980;13.902;2024-01-30T06:29:06;102802.34;;;13.49;38.27
84932;BME280;75193;53.980;13.902;2024-01-30T06:31:33;102805.06;;;13.19;39.12
84932;BME280;75193;53.980;13.902;2024-01-30T06:33:58;102795.66;;;13.40;38.56
84932;BME280;75193;53.980;13.902;2024-01-30T06:36:24;102788.09;;;13.81;37.84
84932;BME280;75193;53.980;13.902;2024-01-30T06:38:49;102796.63;;;13.36;38.87
84932;BME280;75193;53.980;13.902;2024-01-30T06:41:15;102793.50;;;13.51;38.63
84932;BME280;75193;53.980;13.902;2024-01-30T06:43:40;102794.97;;;13.60;38.47
84932;BME280;75193;53.980;13.902;2024-01-30T06:46:06;102789.69;;;13.85;37.95
84932;BME280;75193;53.980;13.902;2024-01-30T06:48:32;102795.88;;;13.06;39.11
84932;BME280;75193;53.980;13.902;2024-01-30T06:50:57;102788.13;;;14.04;37.44
84932;BME280;75193;53.980;13.902;2024-01-30T06:53:23;102796.41;;;13.69;38.21
84932;BME280;75193;53.980;13.902;2024-01-30T06:55:48;102796.28;;;13.47;38.61
84932;BME280;75193;53.980;13.902;2024-01-30T06:58:14;102786.63;;;13.22;39.11
84932;BME280;75193;53.980;13.902;2024-01-30T07:00:39;102784.28;;;13.40;39.09
84932;BME280;75193;53.980;13.902;2024-01-30T07:03:05;102784.84;;;13.23;39.33
84932;BME280;75193;53.980;13.902;2024-01-30T07:05:30;102776.00;;;14.00;38.12
84932;BME280;75193;53.980;13.902;2024-01-30T07:07:56;102779.44;;;13.52;38.83
84932;BME280;75193;53.980;13.902;2024-01-30T07:10:21;102772.09;;;13.37;39.29
84932;BME280;75193;53.980;13.902;2024-01-30T07:12:47;102781.50;;;13.44;39.28
84932;BME280;75193;53.980;13.902;2024-01-30T07:15:12;102781.22;;;13.27;39.50
84932;BME280;75193;53.980;13.902;2024-01-30T07:17:41;102774.19;;;13.27;39.81
84932;BME280;75193;53.980;13.902;2024-01-30T07:20:07;102774.84;;;13.34;39.43
84932;BME280;75193;53.980;13.902;2024-01-30T07:22:34;102780.00;;;13.62;39.03
84932;BME280;75193;53.980;13.902;2024-01-30T07:25:00;102775.91;;;13.53;39.12
84932;BME280;75193;53.980;13.902;2024-01-30T07:27:26;102763.97;;;12.92;40.22
84932;BME280;75193;53.980;13.902;2024-01-30T07:29:51;102770.53;;;13.58;39.09
84932;BME280;75193;53.980;13.902;2024-01-30T07:32:17;102772.69;;;13.95;38.45
84932;BME280;75193;53.980;13.902;2024-01-30T07:34:43;102761.34;;;13.93;38.49
84932;BME280;75193;53.980;13.902;2024-01-30T07:37:09;102771.66;;;14.22;37.64
84932;BME280;75193;53.980;13.902;2024-01-30T07:39:36;102778.09;;;13.90;38.70
84932;BME280;75193;53.980;13.902;2024-01-30T07:42:02;102780.72;;;13.90;38.56
84932;BME280;75193;53.980;13.902;2024-01-30T07:44:28;102776.91;;;14.46;37.72
84932;BME280;75193;53.980;13.902;2024-01-30T07:46:53;102762.06;;;14.45;37.80
84932;BME280;75193;53.980;13.902;2024-01-30T07:49:20;102766.84;;;14.57;37.72
84932;BME280;75193;53.980;13.902;2024-01-30T07:51:45;102766.47;;;14.44;38.11
84932;BME280;75193;53.980;13.902;2024-01-30T07:54:11;102765.69;;;14.64;38.04
84932;BME280;75193;53.980;13.902;2024-01-30T07:56:37;102759.28;;;14.48;38.45
84932;BME280;75193;53.980;13.902;2024-01-30T07:59:02;102759.88;;;15.20;37.24
84932;BME280;75193;53.980;13.902;2024-01-30T08:01:28;102755.13;;;15.08;36.90
84932;BME280;75193;53.980;13.902;2024-01-30T08:03:53;102751.38;;;15.54;36.55
84932;BME280;75193;53.980;13.902;2024-01-30T08:06:19;102762.28;;;15.47;36.69
84932;BME280;75193;53.980;13.902;2024-01-30T08:08:45;102750.25;;;15.80;36.32
84932;BME280;75193;53.980;13.902;2024-01-30T08:11:10;102756.03;;;15.69;36.59
84932;BME280;75193;53.980;13.902;2024-01-30T08:13:36;102757.28;;;15.81;36.45
84932;BME280;75193;53.980;13.902;2024-01-30T08:16:01;102756.66;;;15.34;37.60
84932;BME280;75193;53.980;13.902;2024-01-30T08:18:27;102757.25;;;15.40;37.47
84932;BME280;75193;53.980;13.902;2024-01-30T08:20:52;102749.09;;;15.67;36.90
84932;BME280;75193;53.980;13.902;2024-01-30T08:23:18;102743.19;;;15.62;37.30
84932;BME280;75193;53.980;13.902;2024-01-30T08:25:43;102747.59;;;16.00;36.50
84932;BME280;75193;53.980;13.902;2024-01-30T08:28:09;102744.13;;;16.19;36.33
84932;BME280;75193;53.980;13.902;2024-01-30T08:30:34;102749.25;;;16.03;36.64
84932;BME280;75193;53.980;13.902;2024-01-30T08:33:00;102751.59;;;16.28;36.38
84932;BME280;75193;53.980;13.902;2024-01-30T08:35:26;102747.31;;;16.44;35.63
84932;BME280;75193;53.980;13.902;2024-01-30T08:37:52;102758.25;;;15.97;36.17
84932;BME280;75193;53.980;13.902;2024-01-30T08:40:17;102756.63;;;16.32;35.84
84932;BME280;75193;53.980;13.902;2024-01-30T08:42:42;102765.03;;;15.84;36.67
84932;BME280;75193;53.980;13.902;2024-01-30T08:45:08;102767.88;;;15.59;36.98
84932;BME280;75193;53.980;13.902;2024-01-30T08:47:34;102774.31;;;15.32;36.99
84932;BME280;75193;53.980;13.902;2024-01-30T08:50:00;102764.09;;;15.85;36.77
84932;BME280;75193;53.980;13.902;2024-01-30T08:52:25;102762.16;;;15.70;36.81
84932;BME280;75193;53.980;13.902;2024-01-30T08:54:51;102754.16;;;16.11;36.15
84932;BME280;75193;53.980;13.902;2024-01-30T08:57:16;102752.00;;;15.61;36.96
84932;BME280;75193;53.980;13.902;2024-01-30T08:59:41;102759.97;;;15.98;36.25
84932;BME280;75193;53.980;13.902;2024-01-30T09:02:09;102762.69;;;15.97;36.28
84932;BME280;75193;53.980;13.902;2024-01-30T09:04:35;102758.78;;;15.46;36.88
84932;BME280;75193;53.980;13.902;2024-01-30T09:07:01;102761.28;;;16.09;36.21
84932;BME280;75193;53.980;13.902;2024-01-30T09:09:26;102764.38;;;16.37;35.90
84932;BME280;75193;53.980;13.902;2024-01-30T09:11:52;102760.38;;;15.70;36.70
84932;BME280;75193;53.980;13.902;2024-01-30T09:14:17;102758.09;;;16.40;35.48
84932;BME280;75193;53.980;13.902;2024-01-30T09:16:43;102759.56;;;16.45;35.55
84932;BME280;75193;53.980;13.902;2024-01-30T09:19:08;102749.09;;;16.25;36.34
84932;BME280;75193;53.980;13.902;2024-01-30T09:21:34;102758.00;;;16.60;35.68
84932;BME280;75193;53.980;13.902;2024-01-30T09:24:03;102757.56;;;16.50;35.40
84932;BME280;75193;53.980;13.902;2024-01-30T09:26:31;102763.28;;;16.41;35.97
84932;BME280;75193;53.980;13.902;2024-01-30T09:28:56;102769.13;;;16.67;35.43
84932;BME280;75193;53.980;13.902;2024-01-30T09:31:22;102764.25;;;17.12;35.08
84932;BME280;75193;53.980;13.902;2024-01-30T09:33:47;102771.38;;;17.27;34.65
84932;BME280;75193;53.980;13.902;2024-01-30T09:36:14;102767.22;;;16.87;35.56
84932;BME280;75193;53.980;13.902;2024-01-30T09:38:40;102769.50;;;16.95;35.53
84932;BME280;75193;53.980;13.902;2024-01-30T09:41:09;102773.25;;;16.72;35.14
84932;BME280;75193;53.980;13.902;2024-01-30T09:43:35;102767.88;;;15.98;36.50
84932;BME280;75193;53.980;13.902;2024-01-30T09:46:02;102769.72;;;16.90;35.28
84932;BME280;75193;53.980;13.902;2024-01-30T09:48:29;102765.47;;;17.57;34.17
84932;BME280;75193;53.980;13.902;2024-01-30T09:50:57;102763.06;;;17.70;34.33
84932;BME280;75193;53.980;13.902;2024-01-30T09:53:23;102764.69;;;17.55;34.95
84932;BME280;75193;53.980;13.902;2024-01-30T09:55:50;102753.00;;;18.09;33.66
84932;BME280;75193;53.980;13.902;2024-01-30T09:58:16;102748.56;;;18.26;33.93
84932;BME280;75193;53.980;13.902;2024-01-30T10:00:41;102746.97;;;17.22;35.55
84932;BME280;75193;53.980;13.902;2024-01-30T10:03:08;102747.88;;;17.56;35.19
84932;BME280;75193;53.980;13.902;2024-01-30T10:05:35;102738.53;;;17.99;34.24
84932;BME280;75193;53.980;13.902;2024-01-30T10:08:06;102739.91;;;17.40;35.28
84932;BME280;75193;53.980;13.902;2024-01-30T10:10:31;102745.38;;;17.88;34.40
84932;BME280;75193;53.980;13.902;2024-01-30T10:12:57;102733.09;;;18.34;33.93
84932;BME280;75193;53.980;13.902;2024-01-30T10:15:24;102741.28;;;17.98;34.44
84932;BME280;75193;53.980;13.902;2024-01-30T10:17:51;102730.91;;;18.26;34.26
84932;BME280;75193;53.980;13.902;2024-01-30T10:20:16;102739.63;;;17.62;34.75
84932;BME280;75193;53.980;13.902;2024-01-30T10:22:44;102734.75;;;17.72;33.82
84932;BME280;75193;53.980;13.902;2024-01-30T10:25:11;102727.63;;;18.21;33.68
84932;BME280;75193;53.980;13.902;2024-01-30T10:27:58;102722.25;;;17.41;34.56
84932;BME280;75193;53.980;13.902;2024-01-30T10:30:24;102727.34;;;17.11;35.42
84932;BME280;75193;53.980;13.902;2024-01-30T10:32:50;102718.75;;;17.91;34.08
84932;BME280;75193;53.980;13.902;2024-01-30T10:35:16;102714.16;;;17.44;34.38
84932;BME280;75193;53.980;13.902;2024-01-30T10:37:47;102712.97;;;18.31;33.20
84932;BME280;75193;53.980;13.902;2024-01-30T10:40:13;102717.91;;;18.53;33.24
84932;BME280;75193;53.980;13.902;2024-01-30T10:42:43;102701.69;;;18.12;33.92
84932;BME280;75193;53.980;13.902;2024-01-30T10:45:13;102711.34;;;18.13;34.28
84932;BME280;75193;53.980;13.902;2024-01-30T10:47:43;102707.13;;;17.93;34.14
84932;BME280;75193;53.980;13.902;2024-01-30T10:50:09;102706.63;;;18.18;33.98
84932;BME280;75193;53.980;13.902;2024-01-30T10:52:36;102698.47;;;18.23;33.89
84932;BME280;75193;53.980;13.902;2024-01-30T10:55:04;102691.44;;;18.37;33.29
84932;BME280;75193;53.980;13.902;2024-01-30T10:57:34;102690.53;;;18.84;33.15
84932;BME280;75193;53.980;13.902;2024-01-30T11:00:02;102690.13;;;18.60;33.83
84932;BME280;75193;53.980;13.902;2024-01-30T11:02:39;102685.19;;;19.00;32.72
84932;BME280;75193;53.980;13.902;2024-01-30T11:05:05;102676.56;;;19.11;32.80
84932;BME280;75193;53.980;13.902;2024-01-30T11:07:31;102674.19;;;19.64;32.75
84932;BME280;75193;53.980;13.902;2024-01-30T11:10:04;102682.38;;;19.46;32.70
84932;BME280;75193;53.980;13.902;2024-01-30T11:12:31;102684.06;;;18.58;33.60
84932;BME280;75193;53.980;13.902;2024-01-30T11:15:06;102679.75;;;18.41;33.50
84932;BME280;75193;53.980;13.902;2024-01-30T11:20:25;102680.75;;;19.15;33.35
84932;BME280;75193;53.980;13.902;2024-01-30T11:22:55;102676.22;;;19.31;33.16
84932;BME280;75193;53.980;13.902;2024-01-30T11:25:22;102667.81;;;19.53;32.77
84932;BME280;75193;53.980;13.902;2024-01-30T11:27:52;102658.56;;;19.74;32.31
84932;BME280;75193;53.980;13.902;2024-01-30T11:30:25;102661.94;;;19.48;32.45
84932;BME280;75193;53.980;13.902;2024-01-30T11:35:26;102655.84;;;18.73;34.17
84932;BME280;75193;53.980;13.902;2024-01-30T11:37:52;102652.00;;;19.37;32.95
84932;BME280;75193;53.980;13.902;2024-01-30T11:40:19;102641.19;;;19.83;32.26
84932;BME280;75193;53.980;13.902;2024-01-30T11:42:45;102635.72;;;19.72;32.16
84932;BME280;75193;53.980;13.902;2024-01-30T11:45:12;102637.50;;;19.28;33.05
84932;BME280;75193;53.980;13.902;2024-01-30T11:47:38;102632.69;;;19.35;32.49
84932;BME280;75193;53.980;13.902;2024-01-30T11:50:04;102627.47;;;19.62;32.79
84932;BME280;75193;53.980;13.902;2024-01-30T11:52:34;102628.22;;;19.35;32.79
84932;BME280;75193;53.980;13.902;2024-01-30T11:55:00;102629.28;;;19.61;32.12
84932;BME280;75193;53.980;13.902;2024-01-30T11:57:27;102615.53;;;19.69;32.13
84932;BME280;75193;53.980;13.902;2024-01-30T11:59:52;102630.84;;;19.92;32.01
84932;BME280;75193;53.980;13.902;2024-01-30T12:02:18;102629.38;;;19.60;32.67
84932;BME280;75193;53.980;13.902;2024-01-30T12:04:44;102624.44;;;19.40;32.83
84932;BME280;75193;53.980;13.902;2024-01-30T12:07:10;102624.28;;;20.25;31.47
84932;BME280;75193;53.980;13.902;2024-01-30T12:09:36;102618.63;;;19.90;32.24
84932;BME280;75193;53.980;13.902;2024-01-30T12:12:02;102615.38;;;19.99;32.16
84932;BME280;75193;53.980;13.902;2024-01-30T12:14:27;102612.31;;;20.32;31.59
84932;BME280;75193;53.980;13.902;2024-01-30T12:16:53;102612.28;;;19.78;32.38
84932;BME280;75193;53.980;13.902;2024-01-30T12:19:23;102619.22;;;19.38;32.64
84932;BME280;75193;53.980;13.902;2024-01-30T12:21:54;102607.75;;;19.52;32.36
84932;BME280;75193;53.980;13.902;2024-01-30T12:24:20;102610.25;;;19.96;31.92
84932;BME280;75193;53.980;13.902;2024-01-30T12:26:45;102607.72;;;19.94;32.09
84932;BME280;75193;53.980;13.902;2024-01-30T12:29:11;102593.19;;;19.73;32.62
84932;BME280;75193;53.980;13.902;2024-01-30T12:31:36;102599.97;;;20.04;32.13
84932;BME280;75193;53.980;13.902;2024-01-30T12:34:02;102595.91;;;20.13;31.92
84932;BME280;75193;53.980;13.902;2024-01-30T12:36:28;102585.25;;;19.59;32.72
84932;BME280;75193;53.980;13.902;2024-01-30T12:38:56;102581.34;;;19.08;33.49
84932;BME280;75193;53.980;13.902;2024-01-30T12:41:22;102581.13;;;19.67;32.52